Time;durP1;ratioP1;P1;durP2;ratioP2;P2;SDS_P1;SDS_P2;PMS_P1;PMS_P2;Temp;Humidity;BMP_temperature;BMP_pressure;BME280_temperature;BME280_humidity;BME280_pressure;Samples;Min_cycle;Max_cycle;Signal;HPM_P1;HPM_P2
2022/12/25 00:00:36;;;;;;;6.63;3.10;;;;;;;10.13;78.36;100032.53;1083955;46;20056;-77
2022/12/25 00:01:37;;;;;;;5.78;3.20;;;;;;;10.00;78.56;100040.81;1083683;47;20665;-77
2022/12/25 00:02:44;;;;;;;6.18;3.28;;;;;;;10.01;78.88;100047.84;1083828;54;20034;-78
2022/12/25 00:03:46;;;;;;;7.07;3.50;;;;;;;10.10;78.77;100038.13;1083790;54;20073;-77
2022/12/25 00:04:50;;;;;;;6.07;3.42;;;;;;;10.01;78.88;100047.84;1083751;54;20061;-77
2022/12/25 00:05:51;;;;;;;6.68;3.22;;;;;;;10.04;79.05;100044.06;1083954;54;20050;-77
2022/12/25 00:06:55;;;;;;;7.28;3.25;;;;;;;10.01;79.04;100039.84;1084055;54;20045;-78
2022/12/25 00:07:57;;;;;;;7.82;3.00;;;;;;;10.12;78.44;100042.34;1083644;54;20580;-78
2022/12/25 00:09:01;;;;;;;5.85;2.88;;;;;;;10.15;78.50;100035.91;1083749;54;20061;-77
2022/12/25 00:10:03;;;;;;;4.65;2.50;;;;;;;10.19;78.36;100041.78;1083921;54;20042;-77
2022/12/25 00:11:09;;;;;;;5.70;2.63;;;;;;;10.21;78.06;100037.13;1083978;54;20050;-78
2022/12/25 00:12:10;;;;;;;6.10;3.13;;;;;;;10.21;78.16;100034.47;1084323;54;20603;-78
2022/12/25 00:13:15;;;;;;;6.85;2.72;;;;;;;10.17;78.17;100038.41;1083921;54;20042;-77
2022/12/25 00:14:16;;;;;;;6.07;2.90;;;;;;;10.23;77.96;100045.84;1083898;54;20611;-78
2022/12/25 00:15:20;;;;;;;6.10;2.75;;;;;;;10.21;77.83;100034.47;1083857;54;20030;-78
2022/12/25 00:16:24;;;;;;;6.45;3.00;;;;;;;10.21;78.04;100034.47;1084940;54;20069;-77
2022/12/25 00:17:28;;;;;;;6.38;2.92;;;;;;;10.22;78.13;100038.81;1086585;54;20038;-79
2022/12/25 00:18:32;;;;;;;6.43;3.20;;;;;;;10.15;78.25;100039.41;1086318;54;20046;-80
2022/12/25 00:19:36;;;;;;;6.00;2.50;;;;;;;10.25;77.77;100035.88;1086326;54;20274;-77
2022/12/25 00:20:38;;;;;;;6.25;2.65;;;;;;;10.32;77.59;100031.63;1086970;39;20424;-78
2022/12/25 00:21:42;;;;;;;5.95;2.78;;;;;;;10.25;77.58;100041.22;1085334;54;20038;-78
2022/12/25 00:22:43;;;;;;;5.15;2.30;;;;;;;10.35;77.30;100036.69;1084657;54;20053;-77
2022/12/25 00:23:48;;;;;;;6.68;2.70;;;;;;;10.30;77.30;100028.25;1084697;54;20038;-78
2022/12/25 00:24:50;;;;;;;6.95;2.65;;;;;;;10.27;77.67;100028.56;1084654;54;20076;-77
2022/12/25 00:25:54;;;;;;;6.18;2.50;;;;;;;10.32;77.33;100036.97;1084664;54;20034;-79
2022/12/25 00:26:55;;;;;;;6.70;2.40;;;;;;;10.31;77.45;100027.28;1085406;31;20561;-77
2022/12/25 00:28:00;;;;;;;4.88;2.40;;;;;;;10.28;77.17;100035.59;1084687;54;20045;-77
2022/12/25 00:29:01;;;;;;;5.63;2.60;;;;;;;10.33;77.12;100024.47;1084556;54;20177;-77
2022/12/25 00:30:08;;;;;;;5.28;2.63;;;;;;;10.37;77.24;100029.41;1084588;46;20058;-78
2022/12/25 00:31:12;;;;;;;4.65;2.00;;;;;;;10.42;76.68;100021.81;1084453;54;20149;-78
2022/12/25 00:32:16;;;;;;;5.25;2.30;;;;;;;10.44;76.68;100025.19;1085342;39;20460;-78
2022/12/25 00:33:18;;;;;;;5.10;2.28;;;;;;;10.48;76.72;100027.56;1085571;39;20087;-77
2022/12/25 00:34:25;;;;;;;5.13;2.30;;;;;;;10.47;76.58;100024.03;1084886;54;20038;-77
2022/12/25 00:35:26;;;;;;;5.75;2.45;;;;;;;10.45;76.41;100026.88;1084674;54;20054;-77
2022/12/25 00:36:30;;;;;;;7.90;3.42;;;;;;;10.25;77.27;100019.84;1084137;54;20050;-77
2022/12/25 00:37:32;;;;;;;7.05;2.65;;;;;;;10.28;77.09;100020.41;1086132;31;20505;-78
2022/12/25 00:38:38;;;;;;;4.75;2.47;;;;;;;10.36;77.08;100019.69;1084366;54;20600;-78
2022/12/25 00:39:40;;;;;;;5.75;2.47;;;;;;;10.38;76.70;100020.41;1084831;39;20548;-77
2022/12/25 00:40:45;;;;;;;7.70;2.30;;;;;;;10.22;77.27;100015.63;1084557;54;20038;-77
2022/12/25 00:43:03;;;;;;;5.70;2.38;;;;;;;10.36;76.85;100016.16;1085135;54;20031;-78
2022/12/25 00:44:07;;;;;;;4.95;2.40;;;;;;;10.30;76.86;100018.44;1085021;54;20041;-78
2022/12/25 00:45:09;;;;;;;4.70;2.65;;;;;;;10.20;77.42;100019.44;1084969;39;20958;-78
2022/12/25 00:46:14;;;;;;;5.32;2.47;;;;;;;10.04;77.73;100018.19;1084721;54;20046;-78
2022/12/25 00:47:17;;;;;;;4.80;2.55;;;;;;;10.09;77.66;100026.63;1085189;54;20042;-78
2022/12/25 00:48:21;;;;;;;6.82;2.92;;;;;;;10.21;77.34;100013.09;1087580;54;20045;-79
2022/12/25 00:49:25;;;;;;;6.60;2.42;;;;;;;10.25;77.33;100015.31;1087375;54;20038;-78
2022/12/25 00:50:29;;;;;;;4.93;2.50;;;;;;;10.31;76.83;100019.25;1086087;54;20038;-78
2022/12/25 00:51:31;;;;;;;5.25;2.75;;;;;;;10.17;77.19;100022.38;1085463;54;20541;-79
2022/12/25 00:52:35;;;;;;;5.43;2.38;;;;;;;10.22;77.15;100012.09;1086024;46;20035;-79
2022/12/25 00:53:37;;;;;;;4.68;2.22;;;;;;;10.33;77.01;100022.63;1086060;54;20045;-79
2022/12/25 00:54:48;;;;;;;4.70;2.13;;;;;;;10.12;77.46;100015.63;1085623;46;20061;-78
2022/12/25 00:56:01;;;;;;;4.85;2.50;;;;;;;10.14;77.53;100016.34;1084647;54;20042;-79
2022/12/25 00:57:11;;;;;;;4.70;2.30;;;;;;;10.08;77.32;100022.25;1084700;54;20045;-79
2022/12/25 00:58:20;;;;;;;6.00;2.45;;;;;;;10.08;77.62;100024.06;1084491;54;20035;-79
2022/12/25 00:59:36;;;;;;;6.10;2.85;;;;;;;10.10;77.68;100022.09;1084961;54;20038;-79
2022/12/25 01:00:48;;;;;;;4.22;2.22;;;;;;;10.16;77.45;100018.84;1084613;54;20063;-78
2022/12/25 01:01:52;;;;;;;5.05;2.40;;;;;;;10.04;77.79;100012.00;1084601;54;20062;-78
2022/12/25 01:02:54;;;;;;;5.35;2.22;;;;;;;10.08;77.81;100019.59;1085569;39;21095;-78
2022/12/25 01:03:59;;;;;;;5.13;2.45;;;;;;;10.14;77.73;100012.84;1085440;54;20034;-79
2022/12/25 01:05:05;;;;;;;5.70;2.65;;;;;;;10.10;77.70;100016.75;1085667;54;20069;-78
2022/12/25 01:06:11;;;;;;;5.32;2.10;;;;;;;10.22;77.23;100018.31;1085257;54;20155;-80
2022/12/25 01:07:13;;;;;;;5.18;2.50;;;;;;;10.17;77.05;100017.03;1085483;54;20054;-79
2022/12/25 01:08:17;;;;;;;6.05;2.40;;;;;;;10.04;77.78;100023.53;1085250;54;20061;-79
2022/12/25 01:10:35;;;;;;;6.03;2.53;;;;;;;10.17;77.48;100022.38;1085498;54;20034;-79
2022/12/25 01:11:36;;;;;;;6.40;3.00;;;;;;;10.05;77.59;100022.53;1085350;54;20042;-79
2022/12/25 01:12:42;;;;;;;6.47;2.75;;;;;;;10.02;77.86;100022.81;1085483;54;20560;-77
2022/12/25 01:13:44;;;;;;;5.45;2.40;;;;;;;10.08;77.96;100024.94;1086060;39;20066;-79
2022/12/25 01:14:48;;;;;;;8.15;2.72;;;;;;;9.99;78.12;100023.13;1085530;54;20034;-78
2022/12/25 01:15:53;;;;;;;7.15;3.30;;;;;;;10.19;77.47;100026.59;1085747;54;20530;-79
2022/12/25 01:16:55;;;;;;;5.70;2.50;;;;;;;10.14;77.23;100029.69;1085246;54;20049;-78
2022/12/25 01:17:59;;;;;;;5.28;2.55;;;;;;;10.21;77.33;100029.13;1085687;54;20093;-79
2022/12/25 01:19:01;;;;;;;6.15;2.40;;;;;;;10.24;77.01;100029.69;1085636;54;20046;-79
2022/12/25 01:20:09;;;;;;;7.90;2.70;;;;;;;10.13;77.48;100025.34;1085499;54;20038;-79
2022/12/25 01:21:14;;;;;;;6.32;2.67;;;;;;;10.26;77.07;100027.69;1085599;54;20077;-79
2022/12/25 01:22:19;;;;;;;7.35;2.33;;;;;;;10.28;76.82;100033.75;1086180;54;20066;-79
2022/12/25 01:23:20;;;;;;;6.43;3.08;;;;;;;10.32;77.00;100031.63;1086011;54;20094;-78
2022/12/25 01:24:24;;;;;;;5.13;2.42;;;;;;;10.32;76.80;100036.97;1086540;54;20596;-78
2022/12/25 01:25:26;;;;;;;6.85;2.50;;;;;;;10.36;76.66;100033.03;1086828;46;20042;-79
2022/12/25 01:26:30;;;;;;;4.57;1.92;;;;;;;10.42;76.37;100034.34;1086157;54;20069;-78
2022/12/25 01:27:32;;;;;;;4.97;2.50;;;;;;;10.42;76.39;100032.50;1086158;54;20979;-77
2022/12/25 01:28:36;;;;;;;5.03;2.10;;;;;;;10.44;76.35;100035.00;1084612;54;20596;-79
2022/12/25 01:29:38;;;;;;;6.43;2.30;;;;;;;10.49;76.03;100029.22;1084381;54;20062;-78
2022/12/25 01:30:49;;;;;;;3.97;1.77;;;;;;;10.47;75.96;100033.91;1084425;54;20038;-78
2022/12/25 01:31:51;;;;;;;5.10;2.55;;;;;;;10.44;76.13;100030.53;1084403;54;20165;-77
2022/12/25 01:32:55;;;;;;;5.15;2.10;;;;;;;10.47;76.04;100028.56;1083611;54;20049;-77
2022/12/25 01:33:56;;;;;;;4.88;2.13;;;;;;;10.52;76.16;100040.50;1083923;54;20046;-78
2022/12/25 01:35:00;;;;;;;5.18;2.50;;;;;;;10.48;76.00;100035.59;1084047;46;20058;-77
2022/12/25 01:36:13;;;;;;;5.53;2.65;;;;;;;10.41;75.98;100043.34;1084076;54;20631;-78
2022/12/25 01:37:17;;;;;;;5.03;2.38;;;;;;;10.38;76.37;100041.81;1084225;54;20034;-78
2022/12/25 01:38:21;;;;;;;5.10;2.30;;;;;;;10.34;76.37;100048.38;1087857;31;20576;-80
2022/12/25 01:39:22;;;;;;;6.18;2.80;;;;;;;10.33;76.55;100051.19;1086395;54;20188;-79
2022/12/25 01:40:27;;;;;;;5.18;2.20;;;;;;;10.23;76.93;100053.88;1085501;54;20038;-77
2022/12/25 01:41:28;;;;;;;5.25;2.50;;;;;;;10.27;77.18;100057.94;1083989;54;20065;-77
2022/12/25 01:42:32;;;;;;;6.53;2.30;;;;;;;10.28;76.84;100060.47;1084039;54;20038;-77
2022/12/25 01:43:34;;;;;;;5.38;2.72;;;;;;;10.31;76.78;100056.66;1084070;54;20054;-77
2022/12/25 01:45:16;;;;;;;7.15;2.38;;;;;;;10.15;77.16;100058.09;1083793;54;20088;-77
2022/12/25 01:46:21;;;;;;;4.45;2.00;;;;;;;10.25;77.56;100052.72;1083297;54;20102;-78
2022/12/25 01:47:22;;;;;;;4.40;2.00;;;;;;;10.24;77.20;100051.06;1083438;54;20069;-78
2022/12/25 01:48:32;;;;;;;4.63;2.20;;;;;;;10.33;76.94;100049.34;1083194;54;20065;-78
2022/12/25 01:49:36;;;;;;;5.13;2.00;;;;;;;10.34;77.12;100061.72;1083262;54;20776;-77
2022/12/25 01:50:45;;;;;;;4.35;2.05;;;;;;;10.37;76.98;100060.59;1083367;54;20182;-78
2022/12/25 01:51:53;;;;;;;4.75;2.28;;;;;;;10.45;76.65;100053.59;1084322;46;20098;-78
2022/12/25 01:52:59;;;;;;;5.15;2.17;;;;;;;10.45;76.64;100053.59;1083906;54;20050;-77
2022/12/25 01:54:05;;;;;;;5.95;2.20;;;;;;;10.43;76.55;100060.91;1084240;54;20672;-78
2022/12/25 01:55:11;;;;;;;5.03;2.10;;;;;;;10.50;76.75;100058.50;1084016;39;20496;-77
2022/12/25 01:56:12;;;;;;;4.22;2.38;;;;;;;10.52;76.32;100058.34;1083905;54;20045;-78
2022/12/25 01:57:20;;;;;;;4.60;2.45;;;;;;;10.49;76.70;100055.97;1084012;39;20456;-78
2022/12/25 01:58:22;;;;;;;5.93;2.50;;;;;;;10.47;76.71;100056.13;1083346;54;20072;-78
2022/12/25 01:59:28;;;;;;;5.45;2.70;;;;;;;10.33;77.04;100056.53;1085405;54;20034;-79
2022/12/25 02:00:30;;;;;;;6.15;2.70;;;;;;;10.27;77.56;100063.31;1086379;46;20030;-78
2022/12/25 02:01:34;;;;;;;5.15;2.78;;;;;;;10.31;77.18;100062.00;1088285;39;20733;-79
2022/12/25 02:02:37;;;;;;;8.75;2.97;;;;;;;10.32;77.43;100066.38;1086692;54;20042;-78
2022/12/25 02:03:43;;;;;;;6.40;3.25;;;;;;;10.27;77.33;100060.63;1087833;46;20041;-79
2022/12/25 02:04:50;;;;;;;7.85;3.15;;;;;;;10.42;77.30;100058.38;1086588;54;20076;-78
2022/12/25 02:05:56;;;;;;;6.28;2.47;;;;;;;10.33;77.24;100065.38;1086759;54;20073;-78
2022/12/25 02:07:01;;;;;;;4.60;2.05;;;;;;;10.49;77.09;100063.97;1086293;54;20046;-79
2022/12/25 02:08:10;;;;;;;5.03;2.30;;;;;;;10.51;76.72;100065.53;1086743;54;20627;-78
2022/12/25 02:09:13;;;;;;;4.55;2.15;;;;;;;10.53;76.46;100066.22;1088145;39;20548;-78
2022/12/25 02:10:17;;;;;;;6.68;2.60;;;;;;;10.42;77.10;100063.72;1086737;54;20130;-78
2022/12/25 02:12:39;;;;;;;5.03;2.17;;;;;;;10.49;76.82;100055.97;1086478;54;20069;-78
2022/12/25 02:13:40;;;;;;;6.20;2.42;;;;;;;10.58;76.66;100057.78;1086685;54;20054;-78
2022/12/25 02:14:44;;;;;;;5.05;2.63;;;;;;;10.64;76.23;100057.22;1086796;54;20057;-79
2022/12/25 02:15:56;;;;;;;5.80;2.38;;;;;;;10.64;76.19;100053.66;1089221;39;20337;-78
2022/12/25 02:17:09;;;;;;;4.78;1.75;;;;;;;10.66;76.01;100044.53;1086784;54;20038;-78
2022/12/25 02:18:15;;;;;;;5.28;2.10;;;;;;;10.68;75.96;100042.53;1086730;54;20035;-79
2022/12/25 02:19:33;;;;;;;4.55;2.03;;;;;;;10.66;75.87;100044.53;1086812;54;20050;-78
2022/12/25 02:20:51;;;;;;;4.72;1.92;;;;;;;10.68;76.12;100047.06;1086783;54;20038;-78
2022/12/25 02:22:10;;;;;;;4.90;2.10;;;;;;;10.69;76.09;100046.06;1086862;54;20034;-78
2022/12/25 02:23:32;;;;;;;5.47;2.10;;;;;;;10.72;76.01;100038.59;1087017;54;20049;-79
2022/12/25 02:24:54;;;;;;;4.43;2.00;;;;;;;10.71;75.88;100047.59;1086604;54;20094;-78
2022/12/25 02:26:12;;;;;;;5.25;2.17;;;;;;;10.70;76.05;100039.75;1086945;54;20042;-78
2022/12/25 02:27:23;;;;;;;4.15;1.80;;;;;;;10.70;76.04;100031.72;1088424;39;20520;-79
2022/12/25 02:28:35;;;;;;;4.55;2.15;;;;;;;10.60;75.88;100034.41;1087866;39;20360;-78
2022/12/25 02:29:59;;;;;;;5.28;2.20;;;;;;;10.59;76.32;100033.59;1085636;54;20042;-79
2022/12/25 02:31:10;;;;;;;4.55;2.20;;;;;;;10.62;76.19;100032.44;1085861;54;20061;-80
2022/12/25 02:32:28;;;;;;;4.90;2.22;;;;;;;10.68;75.96;100039.03;1085200;54;20044;-79
2022/12/25 02:35:02;;;;;;;4.47;2.08;;;;;;;10.68;75.81;100031.03;1085190;54;20038;-77
2022/12/25 02:36:15;;;;;;;4.97;2.10;;;;;;;10.69;75.71;100030.03;1085209;54;20054;-79
2022/12/25 02:37:28;;;;;;;3.80;1.98;;;;;;;10.71;75.71;100031.56;1086689;31;20544;-79
2022/12/25 02:38:34;;;;;;;4.25;1.90;;;;;;;10.70;75.99;100027.19;1084931;54;20129;-79
2022/12/25 02:39:59;;;;;;;4.78;2.10;;;;;;;10.66;75.68;100023.16;1085479;54;20042;-79
2022/12/25 02:41:07;;;;;;;4.80;2.05;;;;;;;10.62;75.99;100019.06;1085417;54;20587;-79
2022/12/25 02:42:19;;;;;;;5.57;2.50;;;;;;;10.56;76.21;100023.16;1086513;46;20141;-78
2022/12/25 03:07:28;;;;;;;6.90;2.78;;;;;;;10.19;77.07;100001.72;1085210;54;20038;-78
2022/12/25 03:08:35;;;;;;;6.63;2.50;;;;;;;10.06;77.63;100000.19;1085495;46;20073;-79
2022/12/25 03:12:40;;;;;;;6.63;2.50;;;;;;;10.29;76.76;99995.38;1085091;46;20058;-80
2022/12/25 03:13:44;;;;;;;8.05;2.33;;;;;;;10.30;76.61;99993.53;1084783;54;20049;-79
2022/12/25 03:17:26;;;;;;;9.68;2.83;;;;;;;10.25;76.74;99995.78;1084284;54;20101;-77
2022/12/25 03:18:30;;;;;;;6.82;2.40;;;;;;;10.32;76.55;99988.88;1084298;54;20050;-77
2022/12/25 03:27:24;;;;;;;4.95;2.33;;;;;;;10.24;77.12;99978.06;1084185;54;20045;-78
2022/12/25 03:28:26;;;;;;;6.38;2.30;;;;;;;10.26;76.84;99979.63;1084223;54;20058;-78
2022/12/25 03:32:35;;;;;;;5.28;2.10;;;;;;;10.26;77.21;99974.25;1083077;54;20038;-78
2022/12/25 03:35:21;;;;;;;4.68;2.15;;;;;;;10.27;77.00;99961.78;1083785;54;20076;-78
2022/12/25 03:35:21;;;;;;;5.65;1.90;;;;;;;10.27;77.15;99962.59;1084414;39;20805;-78
2022/12/25 03:36:34;;;;;;;5.55;2.38;;;;;;;10.25;76.98;99969.06;1084091;54;20038;-78
2022/12/25 04:36:59;;;;;;;4.60;1.70;;;;;;;9.40;83.99;99945.69;1086907;54;20043;-77
2022/12/25 04:38:00;;;;;;;5.70;1.60;;;;;;;9.60;82.99;99941.19;1087106;39;20073;-77
2022/12/25 04:39:04;;;;;;;4.70;1.83;;;;;;;9.61;83.05;99944.72;1083967;54;20043;-77
2022/12/25 04:40:07;;;;;;;6.60;1.75;;;;;;;9.58;83.05;99950.34;1083557;54;20154;-78
2022/12/25 04:41:10;;;;;;;5.18;1.88;;;;;;;9.54;83.45;99947.09;1083494;54;20042;-78
2022/12/25 04:42:14;;;;;;;6.75;1.95;;;;;;;9.54;83.53;99949.78;1083682;54;20042;-77
2022/12/25 04:43:16;;;;;;;3.65;1.65;;;;;;;9.67;82.86;99944.16;1083630;54;20144;-78
2022/12/25 04:44:20;;;;;;;6.00;2.00;;;;;;;9.63;83.19;99950.78;1083384;54;20077;-78
2022/12/25 04:45:21;;;;;;;4.32;1.25;;;;;;;9.63;82.93;99948.09;1083502;54;20102;-77
2022/12/25 04:46:25;;;;;;;4.47;1.50;;;;;;;9.54;83.54;99954.28;1083432;46;20061;-77
2022/12/25 04:47:27;;;;;;;5.38;1.92;;;;;;;9.52;83.85;99955.25;1083503;47;20138;-78
2022/12/25 04:48:33;;;;;;;5.60;2.03;;;;;;;9.55;84.13;99945.25;1083446;54;20061;-78
2022/12/25 04:49:37;;;;;;;4.55;1.73;;;;;;;9.52;84.13;99952.59;1083376;54;20161;-78
2022/12/25 04:50:41;;;;;;;4.13;1.42;;;;;;;9.62;83.94;99949.09;1083426;54;20038;-77
2022/12/25 04:51:42;;;;;;;5.57;2.00;;;;;;;9.64;83.40;99949.75;1083517;54;20043;-77
2022/12/25 04:52:46;;;;;;;3.90;1.80;;;;;;;9.60;83.81;99951.03;1083246;54;20045;-77
2022/12/25 04:53:49;;;;;;;5.13;1.70;;;;;;;9.57;84.13;99959.31;1083476;54;20062;-78
2022/12/25 04:54:53;;;;;;;5.25;2.08;;;;;;;9.69;83.78;99955.53;1083170;54;20069;-78
2022/12/25 04:56:00;;;;;;;3.95;1.80;;;;;;;9.71;83.62;99955.38;1083826;39;20569;-77
2022/12/25 04:57:04;;;;;;;3.65;1.40;;;;;;;9.84;82.95;99951.44;1084544;54;20061;-77
2022/12/25 04:58:06;;;;;;;4.45;1.90;;;;;;;9.70;83.28;99953.69;1084631;54;20158;-78
2022/12/25 04:59:10;;;;;;;3.53;1.60;;;;;;;9.69;83.69;99955.53;1084246;54;20057;-77
2022/12/25 05:00:12;;;;;;;4.95;1.60;;;;;;;9.64;83.79;99953.28;1084248;39;20691;-77
2022/12/25 05:01:17;;;;;;;4.35;1.60;;;;;;;9.76;83.56;99940.63;1084066;54;20039;-78
2022/12/25 05:02:18;;;;;;;3.22;1.40;;;;;;;9.83;82.95;99939.06;1084145;54;20237;-77
2022/12/25 05:03:23;;;;;;;4.80;1.58;;;;;;;9.92;82.79;99936.56;1084294;54;20049;-78
2022/12/25 05:04:25;;;;;;;5.28;1.70;;;;;;;9.99;82.50;99933.13;1083823;54;20042;-77
2022/12/25 05:05:32;;;;;;;3.83;1.55;;;;;;;10.07;82.04;99926.22;1084232;54;20094;-78
2022/12/25 05:06:33;;;;;;;3.75;1.50;;;;;;;10.09;81.83;99918.91;1084355;39;20161;-79
2022/12/25 05:07:37;;;;;;;3.20;1.40;;;;;;;10.09;81.84;99918.91;1084050;54;20038;-78
2022/12/25 05:08:39;;;;;;;3.05;1.40;;;;;;;10.14;81.75;99917.50;1084478;54;20051;-78
2022/12/25 05:09:43;;;;;;;4.30;2.10;;;;;;;10.11;81.80;99928.47;1084670;46;20038;-76
2022/12/25 05:10:44;;;;;;;4.15;1.45;;;;;;;10.12;81.82;99929.31;1084652;31;20611;-78
2022/12/25 05:11:48;;;;;;;5.40;1.73;;;;;;;10.12;81.74;99930.16;1084416;54;20034;-78
2022/12/25 05:12:50;;;;;;;4.55;1.98;;;;;;;10.13;81.65;99921.16;1084309;54;20054;-78
2022/12/25 05:13:54;;;;;;;3.78;1.55;;;;;;;10.18;81.40;99930.59;1084598;54;20038;-77
2022/12/25 05:14:58;;;;;;;3.95;1.52;;;;;;;10.18;81.51;99922.56;1084559;54;20039;-77
2022/12/25 05:16:10;;;;;;;3.95;1.63;;;;;;;10.21;81.26;99922.25;1084438;54;20065;-78
2022/12/25 05:17:15;;;;;;;4.68;1.50;;;;;;;10.10;81.54;99925.94;1084557;54;20065;-79
2022/12/25 05:18:24;;;;;;;5.65;1.70;;;;;;;10.00;82.49;99926.00;1084913;54;20038;-78
2022/12/25 05:19:29;;;;;;;5.18;1.50;;;;;;;9.94;82.74;99926.53;1083877;54;20055;-76
2022/12/25 05:20:35;;;;;;;4.35;1.50;;;;;;;9.90;82.97;99925.16;1084122;54;20045;-78
2022/12/25 05:21:37;;;;;;;4.07;1.55;;;;;;;9.98;82.30;99918.09;1084605;54;20532;-78
2022/12/25 05:22:43;;;;;;;6.18;1.80;;;;;;;10.01;82.66;99918.81;1084486;54;20050;-78
2022/12/25 05:23:48;;;;;;;3.70;1.45;;;;;;;9.93;82.73;99919.50;1084306;54;20042;-77
2022/12/25 05:24:52;;;;;;;5.80;1.50;;;;;;;9.89;83.17;99926.16;1084458;54;20061;-77
2022/12/25 05:25:53;;;;;;;4.05;1.50;;;;;;;9.98;82.98;99927.97;1085716;39;20465;-77
2022/12/25 05:26:57;;;;;;;4.68;1.83;;;;;;;9.98;82.78;99926.13;1084556;47;20098;-78
2022/12/25 05:27:59;;;;;;;4.22;1.70;;;;;;;9.87;82.78;99922.78;1084727;39;20206;-77
2022/12/25 05:29:03;;;;;;;4.88;1.58;;;;;;;10.00;82.98;99926.00;1084453;54;20038;-77
2022/12/25 05:30:06;;;;;;;3.78;1.65;;;;;;;9.95;83.01;99930.91;1084388;54;20145;-78
2022/12/25 05:31:11;;;;;;;4.35;1.42;;;;;;;10.01;82.71;99919.66;1084347;54;20086;-77
2022/12/25 05:32:13;;;;;;;4.00;1.77;;;;;;;10.08;82.29;99915.41;1084468;54;20118;-77
2022/12/25 05:33:17;;;;;;;4.05;1.40;;;;;;;10.02;82.14;99924.00;1084371;54;20073;-78
2022/12/25 05:34:18;;;;;;;3.15;1.20;;;;;;;9.98;82.68;99909.25;1084419;54;20599;-77
2022/12/25 05:35:23;;;;;;;3.20;1.15;;;;;;;10.13;82.17;99920.34;1084488;54;20178;-77
2022/12/25 05:36:27;;;;;;;4.32;1.52;;;;;;;10.05;82.12;99913.03;1084395;54;20073;-78
2022/12/25 05:37:31;;;;;;;3.28;1.48;;;;;;;10.06;82.17;99913.88;1084940;31;20654;-78
2022/12/25 05:38:34;;;;;;;3.88;1.33;;;;;;;10.11;81.92;99917.78;1084397;54;20061;-78
2022/12/25 05:39:38;;;;;;;4.00;1.48;;;;;;;10.17;81.58;99912.88;1084348;54;20038;-78
2022/12/25 05:40:40;;;;;;;4.38;1.40;;;;;;;10.12;81.86;99914.13;1084282;54;20038;-78
2022/12/25 05:41:44;;;;;;;3.30;1.38;;;;;;;10.19;81.62;99911.72;1084426;54;20038;-77
2022/12/25 05:42:46;;;;;;;3.55;1.30;;;;;;;10.11;81.60;99911.63;1084427;54;20094;-77
2022/12/25 05:43:50;;;;;;;3.28;1.40;;;;;;;10.12;81.86;99914.13;1084333;54;20082;-78
2022/12/25 05:44:51;;;;;;;3.47;1.05;;;;;;;10.18;81.38;99906.53;1084397;54;20073;-78
2022/12/25 05:45:56;;;;;;;3.65;1.42;;;;;;;10.18;81.27;99906.53;1084497;54;20031;-77
2022/12/25 05:46:57;;;;;;;4.72;1.40;;;;;;;10.25;80.89;99902.28;1084241;46;20058;-77
2022/12/25 05:48:02;;;;;;;2.90;1.33;;;;;;;10.29;80.96;99898.34;1084468;54;20043;-78
2022/12/25 05:49:04;;;;;;;7.55;2.47;;;;;;;10.25;80.68;99894.28;1084830;39;20454;-78
2022/12/25 05:50:10;;;;;;;3.47;1.67;;;;;;;10.24;81.02;99889.91;1084858;46;20041;-77
2022/12/25 05:51:13;;;;;;;3.25;1.33;;;;;;;10.30;80.63;99894.66;1084466;54;20054;-77
2022/12/25 05:52:20;;;;;;;4.15;1.50;;;;;;;10.25;80.43;99887.09;1084594;39;20774;-78
2022/12/25 05:53:22;;;;;;;2.92;1.30;;;;;;;10.32;80.15;99883.84;1084196;54;20065;-77
2022/12/25 05:54:26;;;;;;;3.72;1.45;;;;;;;10.31;80.05;99885.66;1084740;46;20061;-77
2022/12/25 05:55:28;;;;;;;4.18;1.60;;;;;;;10.30;80.31;99886.66;1084442;54;20058;-77
2022/12/25 05:56:32;;;;;;;4.38;1.40;;;;;;;10.33;80.20;99891.69;1084472;54;20050;-78
2022/12/25 05:57:34;;;;;;;3.53;1.38;;;;;;;10.33;79.98;99890.88;1087184;39;20671;-79
2022/12/25 05:58:40;;;;;;;3.60;1.27;;;;;;;10.33;79.66;99886.38;1086763;54;20038;-77
2022/12/25 05:59:42;;;;;;;2.85;1.38;;;;;;;10.35;79.64;99887.06;1086390;54;20050;-77
2022/12/25 06:00:47;;;;;;;2.83;1.00;;;;;;;10.38;79.41;99888.63;1084487;54;20034;-78
2022/12/25 06:01:49;;;;;;;3.58;1.17;;;;;;;10.35;79.31;99889.72;1084922;39;20445;-78
2022/12/25 06:02:53;;;;;;;4.65;1.30;;;;;;;10.25;79.90;99886.25;1084379;54;20062;-78
2022/12/25 06:03:55;;;;;;;3.58;1.25;;;;;;;10.21;79.71;99891.06;1084249;54;20831;-78
2022/12/25 06:04:59;;;;;;;3.35;1.40;;;;;;;10.23;80.07;99888.22;1084362;54;20039;-78
2022/12/25 06:06:02;;;;;;;3.40;1.45;;;;;;;10.20;79.69;99893.88;1084183;54;20165;-78
2022/12/25 06:07:07;;;;;;;2.85;1.20;;;;;;;10.25;79.51;99883.59;1084560;54;20038;-77
2022/12/25 06:08:11;;;;;;;3.50;1.38;;;;;;;10.26;79.31;99887.94;1084069;54;20050;-78
2022/12/25 06:09:15;;;;;;;2.67;1.13;;;;;;;10.32;79.49;99887.34;1084379;54;20074;-77
2022/12/25 06:10:17;;;;;;;5.20;1.92;;;;;;;10.29;79.02;99893.00;1084304;54;20072;-77
2022/12/25 06:11:22;;;;;;;4.88;1.20;;;;;;;10.27;79.24;99894.97;1084286;54;20138;-78
2022/12/25 06:12:23;;;;;;;4.47;1.27;;;;;;;10.33;79.14;99891.69;1084294;54;20106;-78
2022/12/25 06:13:28;;;;;;;4.28;1.30;;;;;;;10.30;79.04;99895.53;1084259;54;20038;-77
2022/12/25 06:14:29;;;;;;;2.92;1.30;;;;;;;10.28;79.25;99899.34;1084229;54;20042;-78
2022/12/25 06:15:34;;;;;;;2.70;1.10;;;;;;;10.34;79.13;99900.59;1084112;54;20034;-77
2022/12/25 06:16:35;;;;;;;3.70;1.10;;;;;;;10.36;79.03;99894.09;1084650;39;20512;-77
2022/12/25 06:17:40;;;;;;;2.28;1.10;;;;;;;10.38;78.80;99894.81;1084248;54;20038;-77
2022/12/25 06:18:44;;;;;;;2.88;1.20;;;;;;;10.40;78.63;99900.00;1084361;54;20058;-77
2022/12/25 06:19:48;;;;;;;3.55;1.17;;;;;;;10.39;78.44;99898.31;1084451;54;20073;-77
2022/12/25 06:20:50;;;;;;;2.80;1.15;;;;;;;10.40;78.43;99895.50;1086674;54;20118;-77
2022/12/25 06:21:55;;;;;;;2.35;0.90;;;;;;;10.40;78.36;99898.16;1087633;54;20038;-78
2022/12/25 06:22:58;;;;;;;3.05;1.20;;;;;;;10.39;78.63;99896.47;1087672;54;20073;-77
2022/12/25 06:24:05;;;;;;;3.45;1.13;;;;;;;10.42;78.43;99898.88;1087675;54;20090;-76
2022/12/25 06:25:08;;;;;;;2.70;1.02;;;;;;;10.37;78.50;99903.81;1087790;54;20026;-76
2022/12/25 06:26:15;;;;;;;3.25;1.27;;;;;;;10.38;78.22;99910.88;1087222;54;20038;-77
2022/12/25 06:27:17;;;;;;;2.63;1.05;;;;;;;10.37;78.36;99909.16;1084456;54;20146;-77
2022/12/25 06:28:21;;;;;;;2.85;1.10;;;;;;;10.43;78.46;99905.91;1084492;54;20061;-77
2022/12/25 06:29:22;;;;;;;2.67;1.05;;;;;;;10.39;78.33;99907.16;1084629;54;20744;-78
2022/12/25 06:30:27;;;;;;;2.58;1.05;;;;;;;10.43;78.39;99905.91;1084638;54;20648;-78
2022/12/25 06:31:29;;;;;;;2.90;1.10;;;;;;;10.43;78.23;99905.06;1085647;39;20481;-78
2022/12/25 06:32:33;;;;;;;2.40;1.00;;;;;;;10.41;78.02;99902.53;1091202;31;20600;-78
2022/12/25 06:33:35;;;;;;;2.80;1.00;;;;;;;10.43;78.21;99908.56;1084301;54;20054;-79
2022/12/25 06:34:39;;;;;;;2.63;1.02;;;;;;;10.37;78.28;99909.16;1084184;54;20133;-79
2022/12/25 06:35:41;;;;;;;2.97;1.00;;;;;;;10.41;78.42;99905.19;1084273;54;20050;-78
2022/12/25 06:36:45;;;;;;;2.17;0.90;;;;;;;10.39;78.29;99904.50;1084164;54;20561;-78
2022/12/25 06:37:47;;;;;;;2.83;1.08;;;;;;;10.41;78.27;99904.38;1084107;54;20577;-78
2022/12/25 06:38:52;;;;;;;2.53;0.90;;;;;;;10.42;78.38;99903.38;1084064;54;20061;-78
2022/12/25 06:39:56;;;;;;;2.75;1.23;;;;;;;10.43;78.04;99900.56;1084973;31;20580;-77
2022/12/25 06:41:07;;;;;;;2.88;1.00;;;;;;;10.40;77.90;99900.84;1084154;54;20115;-77
2022/12/25 06:42:08;;;;;;;2.50;1.00;;;;;;;10.41;77.96;99904.38;1084533;54;20038;-78
2022/12/25 06:43:12;;;;;;;2.63;1.00;;;;;;;10.41;77.99;99907.88;1085101;54;20038;-78
2022/12/25 06:44:14;;;;;;;3.95;1.20;;;;;;;10.41;78.13;99913.22;1085682;39;20540;-78
2022/12/25 06:45:18;;;;;;;2.80;1.10;;;;;;;10.41;78.24;99907.88;1084431;54;20039;-77
2022/12/25 06:46:21;;;;;;;2.90;1.00;;;;;;;10.42;78.01;99912.22;1084124;54;20049;-78
2022/12/25 06:47:25;;;;;;;2.92;1.13;;;;;;;10.44;78.26;99907.59;1083850;54;20039;-78
2022/12/25 06:48:26;;;;;;;2.40;1.02;;;;;;;10.40;78.08;99906.19;1084517;54;20069;-77
2022/12/25 06:49:31;;;;;;;3.42;1.10;;;;;;;10.40;77.97;99900.00;1084199;54;20039;-78